createdAt,value
2018-01-04T00:00:34.266Z,6.90
2018-01-04T00:03:02.496Z,6.80
2018-01-04T00:05:30.719Z,6.90
2018-01-04T00:07:59.768Z,6.90
2018-01-04T00:10:27.977Z,6.80
2018-01-04T00:12:56.957Z,6.90
2018-01-04T00:15:25.182Z,6.90
2018-01-04T00:17:53.545Z,6.90
2018-01-04T00:20:21.774Z,6.90
2018-01-04T00:22:49.990Z,6.90
2018-01-04T00:25:18.214Z,6.90
2018-01-04T00:27:46.433Z,6.90
2018-01-04T00:30:14.696Z,6.90
2018-01-04T00:32:43.674Z,6.80
2018-01-04T00:35:11.877Z,6.80
2018-01-04T00:37:40.106Z,6.80
2018-01-04T00:40:08.329Z,6.80
2018-01-04T00:42:36.549Z,6.90
2018-01-04T00:45:04.781Z,6.90
2018-01-04T00:47:33.745Z,7.00
2018-01-04T00:50:02.742Z,7.10
2018-01-04T00:52:31.738Z,7.10
2018-01-04T00:55:00.805Z,7.10
2018-01-04T00:57:29.022Z,7.10
2018-01-04T00:59:57.982Z,7.00
2018-01-04T01:02:26.201Z,7.00
2018-01-04T01:04:54.431Z,7.00
2018-01-04T01:07:23.489Z,7.00
2018-01-04T01:09:52.432Z,7.00
2018-01-04T01:14:56.029Z,6.90
2018-01-04T01:17:25.102Z,6.80
2018-01-04T01:19:54.026Z,6.80
2018-01-04T01:22:23.025Z,6.80
2018-01-04T01:24:52.012Z,6.80
2018-01-04T01:27:21.027Z,6.90
2018-01-04T01:29:49.222Z,6.80
2018-01-04T01:32:17.426Z,6.90
2018-01-04T01:34:45.654Z,6.90
2018-01-04T01:37:13.861Z,6.90
2018-01-04T01:39:42.101Z,6.90
2018-01-04T01:42:11.053Z,7.00
2018-01-04T01:44:39.316Z,6.90
2018-01-04T01:47:07.529Z,7.10
2018-01-04T01:49:36.506Z,7.10
2018-01-04T01:52:04.994Z,7.10
2018-01-04T01:54:33.982Z,7.20
2018-01-04T01:57:02.961Z,7.20
2018-01-04T01:59:31.198Z,7.20
2018-01-04T02:01:59.418Z,7.20
2018-01-04T02:04:28.425Z,7.30
2018-01-04T02:06:57.415Z,7.20
2018-01-04T02:09:26.390Z,7.20
2018-01-04T02:11:54.622Z,7.20
2018-01-04T02:14:23.457Z,7.20
2018-01-04T02:16:51.682Z,7.20
2018-01-04T02:19:31.649Z,7.20
2018-01-04T02:22:11.898Z,7.20
2018-01-04T02:24:51.953Z,7.20
2018-01-04T02:27:32.027Z,7.20
2018-01-04T02:30:12.994Z,7.20
2018-01-04T02:32:53.135Z,7.20
2018-01-04T02:35:36.031Z,7.20
2018-01-04T02:38:16.201Z,7.20
2018-01-04T02:40:52.309Z,7.20
2018-01-04T02:43:33.066Z,7.20
2018-01-04T02:46:02.078Z,7.20
2018-01-04T02:48:31.060Z,7.20
2018-01-04T02:51:00.040Z,7.20
2018-01-04T02:53:28.274Z,7.20
2018-01-04T02:55:56.485Z,7.30
2018-01-04T02:58:24.714Z,7.20
2018-01-04T03:00:52.930Z,7.20
2018-01-04T03:03:21.426Z,7.10
2018-01-04T03:05:50.409Z,7.10
2018-01-04T03:08:19.414Z,7.10
2018-01-04T03:10:48.393Z,7.10
2018-01-04T03:13:16.622Z,7.00
2018-01-04T03:15:44.841Z,7.10
2018-01-04T03:18:13.857Z,7.20
2018-01-04T03:20:43.147Z,7.10
2018-01-04T03:23:17.837Z,7.10
2018-01-04T03:25:51.716Z,7.10
2018-01-04T03:28:25.554Z,7.10
2018-01-04T03:30:59.593Z,7.10
2018-01-04T03:33:33.460Z,7.20
2018-01-04T03:36:07.282Z,7.10
2018-01-04T03:38:41.350Z,7.10
2018-01-04T03:41:15.245Z,7.10
2018-01-04T03:43:49.020Z,7.10
2018-01-04T03:46:22.834Z,7.20
2018-01-04T03:48:57.694Z,7.20
2018-01-04T03:51:31.526Z,7.10
2018-01-04T03:54:05.483Z,7.20
2018-01-04T03:56:40.238Z,7.20
2018-01-04T03:59:14.288Z,7.20
2018-01-04T04:01:48.059Z,7.20
2018-01-04T04:04:21.917Z,7.20
2018-01-04T04:06:55.898Z,7.20
2018-01-04T04:09:24.137Z,7.20
2018-01-04T04:11:52.345Z,7.30
2018-01-04T04:14:20.549Z,7.30
2018-01-04T04:16:49.569Z,7.30
2018-01-04T04:19:17.798Z,7.30
2018-01-04T04:21:46.013Z,7.30
2018-01-04T04:24:14.985Z,7.30
2018-01-04T04:26:43.203Z,7.30
2018-01-04T04:29:11.405Z,7.30
2018-01-04T04:31:39.626Z,7.30
2018-01-04T04:34:07.821Z,7.30
2018-01-04T04:36:36.066Z,7.40
2018-01-04T04:39:05.042Z,7.40
2018-01-04T04:41:33.545Z,7.30
2018-01-04T04:44:01.761Z,7.40
2018-01-04T04:46:29.965Z,7.40
2018-01-04T04:48:58.188Z,7.40
2018-01-04T04:51:26.404Z,7.40
2018-01-04T04:53:54.636Z,7.40
2018-01-04T04:56:22.840Z,7.40
2018-01-04T04:58:51.065Z,7.50
2018-01-04T05:01:20.362Z,7.50
2018-01-04T05:03:48.573Z,7.50
2018-01-04T05:06:16.795Z,7.50
2018-01-04T05:08:45.806Z,7.50
2018-01-04T05:11:14.026Z,7.50
2018-01-04T05:13:42.253Z,7.60
2018-01-04T05:16:11.233Z,7.60
2018-01-04T05:18:39.471Z,7.50
2018-01-04T05:21:07.714Z,7.50
2018-01-04T05:23:36.701Z,7.60
2018-01-04T05:26:04.902Z,7.50
2018-01-04T05:28:34.654Z,7.60
2018-01-04T05:31:02.874Z,7.50
2018-01-04T05:33:31.115Z,7.60
2018-01-04T05:35:59.325Z,7.60
2018-01-04T05:38:27.869Z,7.60
2018-01-04T05:40:56.874Z,7.40
2018-01-04T05:43:25.854Z,7.30
2018-01-04T05:45:54.849Z,7.20
2018-01-04T05:48:23.068Z,7.20
2018-01-04T05:50:51.605Z,7.20
2018-01-04T05:53:19.816Z,7.20
2018-01-04T05:55:48.077Z,7.20
2018-01-04T05:58:17.054Z,7.20
2018-01-04T06:00:46.090Z,7.20
2018-01-04T06:03:14.314Z,7.20
2018-01-04T06:05:43.306Z,7.20
2018-01-04T06:08:12.299Z,7.20
2018-01-04T06:10:41.598Z,7.20
2018-01-04T06:13:09.821Z,7.20
2018-01-04T06:15:38.047Z,7.30
2018-01-04T06:18:06.261Z,7.30
2018-01-04T06:20:34.490Z,7.30
2018-01-04T06:23:03.897Z,7.30
2018-01-04T06:25:32.873Z,7.20
2018-01-04T06:28:01.371Z,7.20
2018-01-04T06:30:30.374Z,7.30
2018-01-04T06:32:58.613Z,7.20
2018-01-04T06:35:26.817Z,7.30
2018-01-04T06:37:55.290Z,7.30
2018-01-04T06:40:24.284Z,7.30
2018-01-04T06:42:52.510Z,7.30
2018-01-04T06:45:20.730Z,7.40
2018-01-04T06:47:49.727Z,7.40
2018-01-04T06:50:17.957Z,7.30
2018-01-04T06:52:46.179Z,7.40
2018-01-04T06:55:15.157Z,7.40
2018-01-04T06:57:44.149Z,7.40
2018-01-04T07:00:13.146Z,7.40
2018-01-04T07:02:41.632Z,7.40
2018-01-04T07:05:10.932Z,7.50
2018-01-04T07:07:39.142Z,7.40
2018-01-04T07:10:07.357Z,7.50
2018-01-04T07:12:35.582Z,7.50
2018-01-04T07:15:04.153Z,7.50
2018-01-04T07:17:33.118Z,7.50
2018-01-04T07:20:01.325Z,7.50
2018-01-04T07:22:29.553Z,7.50
2018-01-04T07:24:57.767Z,7.50
2018-01-04T07:27:27.053Z,7.50
2018-01-04T07:29:56.028Z,7.50
2018-01-04T07:32:25.038Z,7.40
2018-01-04T07:34:53.249Z,7.40
2018-01-04T07:37:21.477Z,7.40
2018-01-04T07:39:49.686Z,7.50
2018-01-04T07:42:17.911Z,7.50
2018-01-04T07:44:47.626Z,7.70
2018-01-04T07:47:17.369Z,7.70
2018-01-04T07:49:46.385Z,7.70
2018-01-04T07:52:14.637Z,7.60
2018-01-04T07:54:42.863Z,7.70
2018-01-04T07:57:11.089Z,7.80
2018-01-04T07:59:39.353Z,7.80
2018-01-04T08:02:08.333Z,7.80
2018-01-04T08:04:36.553Z,7.70
2018-01-04T08:07:04.773Z,7.80
2018-01-04T08:09:33.005Z,7.80
2018-01-04T08:12:01.231Z,7.90
2018-01-04T08:14:30.241Z,8.10
2018-01-04T08:16:58.457Z,8.00
2018-01-04T08:19:28.709Z,8.10
2018-01-04T08:21:56.931Z,8.00
2018-01-04T08:24:25.157Z,7.90
2018-01-04T08:26:53.683Z,7.90
2018-01-04T08:29:22.643Z,7.80
2018-01-04T08:31:51.625Z,7.80
2018-01-04T08:34:19.850Z,7.80
2018-01-04T08:36:48.060Z,7.80
2018-01-04T08:39:16.259Z,7.70
2018-01-04T08:41:45.477Z,7.70
2018-01-04T08:44:13.681Z,7.60
2018-01-04T08:46:41.939Z,7.60
2018-01-04T08:49:10.146Z,7.60
2018-01-04T08:51:38.370Z,7.60
2018-01-04T08:54:06.585Z,7.50
2018-01-04T08:56:34.806Z,7.50
2018-01-04T08:59:03.791Z,7.40
2018-01-04T09:01:32.014Z,7.40
2018-01-04T09:04:00.217Z,7.40
2018-01-04T09:06:28.473Z,7.40
2018-01-04T09:08:56.999Z,7.30
2018-01-04T09:11:26.009Z,7.20
2018-01-04T09:13:54.978Z,7.20
2018-01-04T09:16:23.193Z,7.20
2018-01-04T09:18:51.444Z,7.20
2018-01-04T09:21:20.533Z,7.30
2018-01-04T09:23:48.753Z,7.30
2018-01-04T09:26:16.965Z,7.40
2018-01-04T09:28:45.177Z,7.40
2018-01-04T09:31:13.390Z,7.50
2018-01-04T09:33:41.618Z,7.60
2018-01-04T09:36:09.826Z,7.70
2018-01-04T09:38:38.051Z,7.80
2018-01-04T09:41:07.033Z,7.80
2018-01-04T09:43:36.342Z,7.90
2018-01-04T09:46:04.546Z,7.80
2018-01-04T09:48:32.749Z,7.90
2018-01-04T09:51:01.018Z,7.90
2018-01-04T09:53:29.211Z,8.00
2018-01-04T09:55:57.449Z,8.00
2018-01-04T09:58:25.661Z,8.10
2018-01-04T10:00:53.877Z,8.10
2018-01-04T10:03:22.850Z,8.20
2018-01-04T10:05:51.071Z,8.20
2018-01-04T10:08:19.282Z,8.20
2018-01-04T10:10:47.518Z,8.30
2018-01-04T10:13:15.739Z,8.30
2018-01-04T10:15:43.953Z,8.30
2018-01-04T10:18:12.190Z,8.30
2018-01-04T10:20:40.418Z,8.40
2018-01-04T10:23:08.633Z,8.30
2018-01-04T10:25:37.644Z,8.30
2018-01-04T10:28:06.677Z,8.30
2018-01-04T10:30:34.909Z,8.30
2018-01-04T10:33:03.899Z,8.40
2018-01-04T10:35:32.877Z,8.50
2018-01-04T10:38:01.097Z,8.50
2018-01-04T10:40:29.317Z,8.50
2018-01-04T10:42:57.541Z,8.60
2018-01-04T10:45:25.774Z,8.60
2018-01-04T10:47:53.993Z,8.60
2018-01-04T10:50:22.209Z,8.60
2018-01-04T10:52:50.447Z,8.60
2018-01-04T10:55:18.661Z,8.60
2018-01-04T10:57:46.889Z,8.60
2018-01-04T11:00:15.113Z,8.60
2018-01-04T11:02:43.355Z,8.70
2018-01-04T11:05:11.555Z,8.70
2018-01-04T11:07:39.745Z,8.70
2018-01-04T11:10:07.965Z,8.80
2018-01-04T11:12:36.169Z,8.70
2018-01-04T11:15:04.389Z,8.80
2018-01-04T11:17:33.362Z,8.70
2018-01-04T11:20:01.589Z,8.70
2018-01-04T11:22:29.813Z,8.70
2018-01-04T11:24:58.034Z,8.60
2018-01-04T11:27:26.255Z,8.60
2018-01-04T11:29:55.279Z,8.60
2018-01-04T11:32:23.481Z,8.50
2018-01-04T11:34:51.698Z,8.60
2018-01-04T11:37:20.195Z,8.50
2018-01-04T11:39:49.174Z,8.50
2018-01-04T11:42:17.398Z,8.50
2018-01-04T11:44:45.625Z,8.50
2018-01-04T11:47:14.634Z,8.60
2018-01-04T11:49:43.616Z,8.60
2018-01-04T11:52:11.835Z,8.60
2018-01-04T11:54:40.038Z,8.70
2018-01-04T11:57:08.390Z,8.70
2018-01-04T11:59:36.593Z,8.70
2018-01-04T12:02:04.816Z,8.70
2018-01-04T12:04:33.037Z,8.70
2018-01-04T12:07:01.269Z,8.70
2018-01-04T12:09:29.489Z,8.80
2018-01-04T12:11:57.705Z,8.90
2018-01-04T12:14:25.925Z,8.90
2018-01-04T12:16:54.137Z,8.90
2018-01-04T12:19:23.463Z,9.00
2018-01-04T12:21:51.671Z,8.90
2018-01-04T12:24:19.889Z,9.00
2018-01-04T12:26:48.881Z,9.20
2018-01-04T12:29:17.871Z,9.30
2018-01-04T12:31:46.352Z,9.20
2018-01-04T12:34:15.331Z,9.30
2018-01-04T12:36:43.561Z,9.30
2018-01-04T12:39:11.784Z,9.40
2018-01-04T12:41:40.790Z,9.40
2018-01-04T12:44:09.770Z,9.40
2018-01-04T12:46:38.001Z,9.40
2018-01-04T12:49:06.317Z,9.50
2018-01-04T12:51:34.532Z,9.50
2018-01-04T12:54:02.765Z,9.60
2018-01-04T12:56:30.997Z,9.70
2018-01-04T12:58:59.214Z,9.70
2018-01-04T13:01:27.417Z,9.70
2018-01-04T13:03:55.958Z,9.60
2018-01-04T13:06:24.178Z,9.50
2018-01-04T13:08:52.421Z,9.50
2018-01-04T13:11:21.429Z,9.30
2018-01-04T13:13:49.682Z,9.30
2018-01-04T13:16:18.704Z,9.20
2018-01-04T13:18:47.721Z,9.20
2018-01-04T13:21:15.937Z,9.10
2018-01-04T13:23:44.157Z,9.20
2018-01-04T13:26:12.379Z,9.20
2018-01-04T13:28:41.541Z,9.40
2018-01-04T13:31:09.766Z,9.30
2018-01-04T13:33:38.042Z,9.40
2018-01-04T13:36:06.270Z,9.40
2018-01-04T13:38:34.736Z,9.40
2018-01-04T13:41:02.983Z,9.40
2018-01-04T13:43:32.057Z,9.30
2018-01-04T13:46:01.834Z,9.20
2018-01-04T13:48:30.396Z,9.20
2018-01-04T13:50:58.594Z,9.30
2018-01-04T13:53:26.846Z,9.40
2018-01-04T13:55:55.092Z,9.30
2018-01-04T13:58:24.086Z,9.40
2018-01-04T14:00:53.123Z,9.40
2018-01-04T14:03:21.329Z,9.30
2018-01-04T14:05:49.572Z,9.30
2018-01-04T14:08:17.836Z,9.20
2018-01-04T14:10:46.079Z,9.20
2018-01-04T14:13:14.423Z,9.20
2018-01-04T14:15:43.412Z,9.20
2018-01-04T14:18:11.672Z,9.20
2018-01-04T14:20:39.942Z,9.20
2018-01-04T14:23:08.202Z,9.20
2018-01-04T14:25:36.421Z,9.30
2018-01-04T14:28:05.450Z,9.20
2018-01-04T14:30:33.742Z,9.20
2018-01-04T14:33:01.965Z,9.20
2018-01-04T14:35:30.224Z,9.20
2018-01-04T14:37:58.453Z,9.10
2018-01-04T14:40:26.673Z,9.10
2018-01-04T14:45:29.441Z,9.10
2018-01-04T14:47:57.674Z,9.10
2018-01-04T14:50:25.887Z,9.10
2018-01-04T14:52:54.100Z,9.10
2018-01-04T14:55:23.142Z,9.20
2018-01-04T14:57:51.341Z,9.10
2018-01-04T15:00:19.609Z,9.10
2018-01-04T15:02:48.549Z,9.20
2018-01-04T15:05:16.773Z,9.10
2018-01-04T15:07:45.223Z,9.20
2018-01-04T15:10:14.213Z,9.10
2018-01-04T15:12:43.214Z,9.10
2018-01-04T15:15:12.221Z,9.10
2018-01-04T15:17:40.451Z,9.10
2018-01-04T15:20:08.684Z,9.10
2018-01-04T15:22:36.889Z,9.10
2018-01-04T15:25:05.509Z,9.10
2018-01-04T15:27:34.502Z,9.00
2018-01-04T15:30:03.483Z,9.00
2018-01-04T15:32:32.506Z,9.00
2018-01-04T15:35:01.473Z,9.00
2018-01-04T15:37:30.478Z,9.00
2018-01-04T15:39:58.714Z,9.00
2018-01-04T15:42:27.745Z,8.90
2018-01-04T15:44:55.973Z,8.90
2018-01-04T15:47:24.210Z,8.90
2018-01-04T15:49:53.173Z,8.90
2018-01-04T15:52:22.174Z,8.90
2018-01-04T15:54:51.146Z,8.90
2018-01-04T15:57:19.761Z,8.80
2018-01-04T15:59:47.977Z,8.80
2018-01-04T16:02:16.192Z,8.80
2018-01-04T16:04:45.193Z,8.90
2018-01-04T16:07:14.174Z,8.90
2018-01-04T16:09:42.394Z,8.80
2018-01-04T16:12:10.613Z,8.90
2018-01-04T16:14:39.929Z,8.80
2018-01-04T16:17:08.905Z,8.80
2018-01-04T16:19:37.949Z,8.80
2018-01-04T16:22:06.118Z,8.80
2018-01-04T16:24:34.333Z,8.80
2018-01-04T16:27:02.573Z,8.70
2018-01-04T16:29:30.780Z,8.70
2018-01-04T16:31:59.009Z,8.70
2018-01-04T16:34:27.245Z,8.70
2018-01-04T16:36:55.457Z,8.70
2018-01-04T16:39:23.701Z,8.70
2018-01-04T16:41:51.905Z,8.70
2018-01-04T16:44:20.136Z,8.70
2018-01-04T16:46:48.374Z,8.70
2018-01-04T16:49:16.597Z,8.60
2018-01-04T16:51:44.818Z,8.60
2018-01-04T16:54:13.085Z,8.60
2018-01-04T16:56:41.245Z,8.60
2018-01-04T16:59:10.222Z,8.70
2018-01-04T17:01:39.237Z,8.60
2018-01-04T17:04:08.209Z,8.60
2018-01-04T17:06:36.425Z,8.50
2018-01-04T17:09:04.655Z,8.50
2018-01-04T17:11:33.637Z,8.40
2018-01-04T17:14:01.862Z,8.40
2018-01-04T17:16:30.080Z,8.40
2018-01-04T17:18:58.303Z,8.30
2018-01-04T17:21:26.514Z,8.20
2018-01-04T17:23:55.029Z,8.10
2018-01-04T17:26:24.005Z,8.10
2018-01-04T17:28:52.225Z,8.00
2018-01-04T17:31:20.426Z,8.00
2018-01-04T17:33:48.857Z,7.90
2018-01-04T17:36:17.141Z,7.90
2018-01-04T17:38:45.318Z,7.80
2018-01-04T17:41:13.775Z,7.80
2018-01-04T17:43:41.993Z,7.70
2018-01-04T17:46:10.230Z,7.70
2018-01-04T17:48:39.213Z,7.60
2018-01-04T17:51:08.209Z,7.50
2018-01-04T17:53:37.182Z,7.50
2018-01-04T17:56:05.446Z,7.50
2018-01-04T17:58:33.634Z,7.50
2018-01-04T18:01:01.853Z,7.50
2018-01-04T18:03:30.066Z,7.50
2018-01-04T18:05:58.273Z,7.50
2018-01-04T18:08:27.263Z,7.50
2018-01-04T18:10:55.505Z,7.50
2018-01-04T18:13:23.952Z,7.50
2018-01-04T18:15:52.153Z,7.50
2018-01-04T18:18:21.212Z,7.40
2018-01-04T18:20:49.669Z,7.40
2018-01-04T18:23:18.662Z,7.40
2018-01-04T18:25:46.853Z,7.40
2018-01-04T18:28:15.096Z,7.30
2018-01-04T18:30:43.322Z,7.30
2018-01-04T18:33:11.545Z,7.30
2018-01-04T18:35:39.761Z,7.30
2018-01-04T18:38:08.033Z,7.30
2018-01-04T18:40:36.242Z,7.30
2018-01-04T18:43:04.478Z,7.30
2018-01-04T18:45:32.717Z,7.30
2018-01-04T18:48:01.718Z,7.30
2018-01-04T18:50:30.713Z,7.30
2018-01-04T18:52:59.706Z,7.30
2018-01-04T18:55:28.722Z,7.20
2018-01-04T18:57:56.942Z,7.20
2018-01-04T19:00:25.193Z,7.20
2018-01-04T19:02:53.389Z,7.20
2018-01-04T19:05:22.385Z,7.20
2018-01-04T19:07:50.589Z,7.30
2018-01-04T19:10:19.582Z,7.30
2018-01-04T19:12:48.563Z,7.20
2018-01-04T19:15:16.778Z,7.20
2018-01-04T19:17:45.018Z,7.20
2018-01-04T19:20:13.256Z,7.30
2018-01-04T19:22:41.475Z,7.20
2018-01-04T19:25:09.682Z,7.20
2018-01-04T19:27:37.910Z,7.20
2018-01-04T19:30:06.138Z,7.30
2018-01-04T19:32:34.366Z,7.30
2018-01-04T19:35:02.578Z,7.40
2018-01-04T19:37:30.794Z,7.40
2018-01-04T19:39:59.007Z,7.50
2018-01-04T19:42:27.226Z,7.50
2018-01-04T19:44:55.442Z,7.60
2018-01-04T19:47:24.426Z,7.60
2018-01-04T19:49:52.635Z,7.60
2018-01-04T19:52:20.829Z,7.70
2018-01-04T19:54:49.087Z,7.70
2018-01-04T19:57:17.282Z,7.60
2018-01-04T19:59:45.525Z,7.60
2018-01-04T20:02:13.746Z,7.60
2018-01-04T20:04:41.979Z,7.60
2018-01-04T20:07:10.201Z,7.60
2018-01-04T20:09:38.425Z,7.60
2018-01-04T20:12:06.625Z,7.60
2018-01-04T20:14:34.920Z,7.60
2018-01-04T20:17:03.126Z,7.70
2018-01-04T20:19:32.115Z,7.80
2018-01-04T20:22:00.337Z,7.80
2018-01-04T20:24:29.423Z,8.00
2018-01-04T20:29:33.036Z,8.20
2018-01-04T20:32:01.245Z,8.10
2018-01-04T20:34:30.324Z,8.30
2018-01-04T20:36:58.562Z,8.30
2018-01-04T20:39:26.822Z,8.40
2018-01-04T20:41:55.111Z,8.50
2018-01-04T20:44:24.110Z,8.50
2018-01-04T20:46:53.134Z,8.60
2018-01-04T20:49:21.345Z,8.50
2018-01-04T20:51:49.651Z,8.60
2018-01-04T20:54:17.918Z,8.70
2018-01-04T20:56:47.006Z,8.80
2018-01-04T20:59:15.329Z,8.70
2018-01-04T21:01:43.590Z,8.80
2018-01-04T21:04:12.641Z,8.90
2018-01-04T21:06:40.993Z,8.90
2018-01-04T21:09:09.306Z,8.90
2018-01-04T21:11:38.291Z,8.80
2018-01-04T21:14:06.525Z,8.70
2018-01-04T21:16:34.754Z,8.80
2018-01-04T21:19:03.731Z,8.90
2018-01-04T21:21:31.933Z,8.80
2018-01-04T21:24:00.925Z,9.00
2018-01-04T21:26:29.187Z,8.90
2018-01-04T21:28:57.398Z,9.00
2018-01-04T21:31:25.628Z,9.00
2018-01-04T21:33:54.630Z,9.10
2018-01-04T21:36:22.878Z,9.10
2018-01-04T21:38:52.626Z,9.10
2018-01-04T21:41:20.833Z,9.10
2018-01-04T21:43:49.077Z,9.10
2018-01-04T21:46:17.306Z,9.10
2018-01-04T21:48:45.617Z,9.10
2018-01-04T21:51:14.594Z,9.10
2018-01-04T21:53:42.829Z,9.10
2018-01-04T21:56:11.783Z,9.10
2018-01-04T21:58:39.990Z,9.10
2018-01-04T22:01:08.985Z,9.10
2018-01-04T22:03:37.194Z,9.00
2018-01-04T22:06:05.440Z,9.10
2018-01-04T22:08:33.663Z,9.10
2018-01-04T22:11:01.868Z,9.10
2018-01-04T22:13:30.084Z,9.20
2018-01-04T22:15:58.313Z,9.20
2018-01-04T22:18:26.527Z,9.20
2018-01-04T22:20:54.752Z,9.10
2018-01-04T22:23:22.965Z,9.10
2018-01-04T22:25:51.290Z,9.10
2018-01-04T22:28:19.555Z,9.00
2018-01-04T22:30:48.553Z,9.00
2018-01-04T22:33:16.764Z,9.00
2018-01-04T22:35:44.979Z,9.00
2018-01-04T22:38:13.481Z,9.00
2018-01-04T22:40:42.453Z,9.00
2018-01-04T22:43:10.693Z,8.90
2018-01-04T22:45:38.913Z,9.00
2018-01-04T22:48:07.905Z,9.00
2018-01-04T22:50:36.113Z,8.90
2018-01-04T22:53:04.316Z,9.00
2018-01-04T22:55:32.544Z,9.00
2018-01-04T22:58:01.507Z,9.10
2018-01-04T23:00:29.733Z,9.10
2018-01-04T23:02:57.944Z,9.20
2018-01-04T23:05:26.166Z,9.10
2018-01-04T23:07:54.367Z,9.20
2018-01-04T23:10:22.578Z,9.20
2018-01-04T23:12:51.561Z,9.20
2018-01-04T23:15:19.778Z,9.20
2018-01-04T23:17:48.002Z,9.30
2018-01-04T23:20:16.233Z,9.30
2018-01-04T23:22:44.457Z,9.30
2018-01-04T23:25:12.657Z,9.30
2018-01-04T23:27:41.665Z,9.40
2018-01-04T23:30:10.649Z,9.40
2018-01-04T23:32:39.626Z,9.40
2018-01-04T23:35:07.826Z,9.40
2018-01-04T23:37:36.057Z,9.40
2018-01-04T23:40:04.296Z,9.40
2018-01-04T23:42:32.557Z,9.40
2018-01-04T23:45:00.789Z,9.50
2018-01-04T23:47:28.997Z,9.50
2018-01-04T23:49:57.204Z,9.50
2018-01-04T23:52:25.466Z,9.50
2018-01-04T23:54:53.686Z,9.50
2018-01-04T23:57:21.878Z,9.50
2018-01-04T23:59:50.917Z,9.50
